Туношна

Карта отелей и гостиниц, располагающихся рядом с аэропортом Туношна :

Туношна
Ярославль
Ярославская область 57° 33' 38.0988" N, 40° 9' 26.64" E
Код аэродрома ИКАО
UUDL
Код аэродрома RU
УУДЛ
Координаты
N57.56058° E040.15740°
Превышение над уровнем моря
93
Основная полоса
05/23
Курс магнитный
051,2/231,2
Длина основной ВПП
3020
Ширина основной ВПП
44
Покрытие основной ВПП
Твёрдое (асфальтобетон)
Освещение ВПП
Постоянное
Тип: 
Аэродром
Класс аэродрома: 
Международный
Принадлежность: 
ГА
Статус: 
Действующий
Сайт: 
http://www.yaravia.ru/
E-mail аэродрома: 
info@yaravia.ru
Страна: 
Россия
Регион: 
Ярославская область
Город: 
Ярославль
Дополнительная информация: 
Оператор: ОАО "Аэропорт Туношна". Нкр.=(300-700)м. В апреле 2016 г, согласно распоряжению Правительства РФ от 20 апреля 2016 г №726-р (в соответствии п. 8 ст. 40 ВК РФ), международный аэропорт Ярославль (Туношна) - аэропорт столицы субъекта РФ, включен в Перечень аэропортов Федерального значения.
Погода: 

Авиационная погода в Ярославле

Регион: 
Погода METAR: 
UUDL 221800Z 07003MPS 9999 OVC015 M06/M08 Q1016 R05/////// NOSIG RMK QFE754
Время наблюдения
2022-01-22T18:00:00Z
Температура C
-6.0
Точка росы
-8.0
Направление ветра
70
Скорость ветра (узлы)
6
Метео видимость
6.21
Облачность
OVC
Нижняя граница облачности (футы)
1500
Явления погоды
Условия полета
MVFR
Аэропорт подробнее: 
OVC – сплошная облачность;

Найти трансфер

С помощью этой формы Вы можете найти трансфер из аэропорта Туношна в город, аэропорт или вокзал:

Погода в аэропортах:

Авиационная погода в Минске

Регион: 
Погода METAR: 
UMMS 221743Z 35008G12MPS 2800 -SHSN BLSN BKN015CB BKN041 M04/M05 Q1012 NOSIG
Время наблюдения
2022-01-22T17:43:00Z
Температура C
-4.0
Точка росы
-5.0
Направление ветра
350
Скорость ветра (узлы)
16
Метео видимость
1.74
Облачность
BKN
BKN
Нижняя граница облачности (футы)
1500
4100
Явления погоды
-SHSN BLSN
Условия полета
IFR
Аэропорт подробнее: 
BKN – значительная (рассеянная, разорванная) облачность;
-SHSN - слабый ливневой снег, BLSN – метель низовая или общая;

Авиационная погода в Самсуне

Регион: 
Погода METAR: 
LTFH 221750Z 29012KT 3200 -RASN SCT005 BKN026 OVC080 02/01 Q1010 NOSIG
Время наблюдения
2022-01-22T17:50:00Z
Температура C
2.0
Точка росы
1.0
Направление ветра
290
Скорость ветра (узлы)
12
Метео видимость
1.99
Облачность
SCT
BKN
OVC
Нижняя граница облачности (футы)
500
2600
8000
Явления погоды
-RA -SN
Условия полета
IFR
SCT – разбросанная отдельная облачность; BKN – значительная (рассеянная, разорванная) облачность; OVC – сплошная облачность;
-RA - слабый дождь; -SN – слабый снег;

Авиационная погода в Нукусе

Регион: 
Погода METAR: 
UTNN 221800Z 12004KT 4500 BR OVC002 M06/M07 Q1027 R33/CLRD60 NOSIG RMK BASE230
Время наблюдения
2022-01-22T18:00:00Z
Температура C
-6.0
Точка росы
-7.0
Направление ветра
120
Скорость ветра (узлы)
4
Метео видимость
2.8
Облачность
OVC
Нижняя граница облачности (футы)
200
Явления погоды
BR
Условия полета
LIFR
OVC – сплошная облачность;
BR – дымка (видимость от 1 до 9 км);

Авиационная погода в Ульяновске

Регион: 
Погода METAR: 
UWLW 221800Z 14006MPS 1600 R20/2000 SN BLSN OVC019 M05/M06 Q1020 R20/491540 TEMPO 15010MPS 0500 +SN BLSN VV003 RMK QFE760
Время наблюдения
2022-01-22T18:00:00Z
Температура C
-5.0
Точка росы
-6.0
Направление ветра
140
Скорость ветра (узлы)
12
Метео видимость
0.99
Облачность
OVC
Нижняя граница облачности (футы)
1900
Явления погоды
BLSN SN
Условия полета
LIFR
Аэропорт подробнее: 
OVC – сплошная облачность;
BLSN – метель низовая или общая;